Time;durP1;ratioP1;P1;durP2;ratioP2;P2;SDS_P1;SDS_P2;PMS_P1;PMS_P2;Temp;Humidity;BMP_temperature;BMP_pressure;BME280_temperature;BME280_humidity;BME280_pressure;Samples;Min_cycle;Max_cycle;Signal;HPM_P1;HPM_P2
2023/06/27 00:00:06;;;;;;;0.00;0.00;;;;;;;15.81;nan;100651.31;4981632;28;20213;-88
2023/06/27 00:02:31;;;;;;;0.30;0.20;;;;;;;15.85;nan;100660.50;4976245;28;20213;-90
2023/06/27 00:05:00;;;;;;;2.30;1.00;;;;;;;15.83;nan;100656.47;4976403;28;20200;-89
2023/06/27 00:07:27;;;;;;;0.20;0.20;;;;;;;15.81;nan;100665.09;4990772;28;20185;-89
2023/06/27 00:09:54;;;;;;;1.60;0.20;;;;;;;15.83;nan;100664.75;4974410;28;20199;-89
2023/06/27 00:12:20;;;;;;;0.00;0.00;;;;;;;15.76;nan;100671.59;4974271;28;20698;-90
2023/06/27 00:14:45;;;;;;;1.20;0.80;;;;;;;15.79;nan;100669.34;4971597;28;20225;-89
2023/06/27 00:17:12;;;;;;;0.57;0.57;;;;;;;15.74;nan;100670.34;4973628;28;20196;-89
2023/06/27 00:19:38;;;;;;;4.27;0.77;;;;;;;15.71;nan;100671.03;4990402;28;20191;-90
2023/06/27 00:22:09;;;;;;;2.00;0.57;;;;;;;15.61;nan;100669.50;4975741;28;20846;-89
2023/06/27 00:24:38;;;;;;;0.87;0.40;;;;;;;15.49;nan;100677.72;4974313;28;20568;-89
2023/06/27 00:27:04;;;;;;;0.47;0.47;;;;;;;15.36;nan;100670.53;4975670;28;20196;-90
2023/06/27 00:29:30;;;;;;;0.33;0.27;;;;;;;15.34;nan;100676.38;4973723;28;20556;-90
2023/06/27 00:31:55;;;;;;;0.03;0.03;;;;;;;15.41;nan;100673.88;4975282;28;20182;-89
2023/06/27 00:34:20;;;;;;;1.70;0.83;;;;;;;15.35;nan;100678.00;4975545;28;20565;-89
2023/06/27 00:36:46;;;;;;;0.97;0.97;;;;;;;15.40;nan;100674.22;4973094;28;20194;-89
2023/06/27 00:39:11;;;;;;;0.10;0.10;;;;;;;15.31;nan;100670.72;4990101;28;20194;-90
2023/06/27 00:41:37;;;;;;;0.00;0.00;;;;;;;15.18;nan;100670.66;4975401;28;20185;-89
2023/06/27 00:44:08;;;;;;;0.57;0.57;;;;;;;15.16;nan;100677.66;4973999;28;20297;-89
2023/06/27 00:46:37;;;;;;;1.03;0.53;;;;;;;15.04;nan;100680.34;4975481;28;20190;-89
2023/06/27 00:49:03;;;;;;;0.53;0.53;;;;;;;14.94;nan;100675.25;4975010;28;20221;-89
2023/06/27 00:51:29;;;;;;;2.20;1.20;;;;;;;14.94;nan;100684.31;4974283;28;20244;-90
2023/06/27 00:53:56;;;;;;;0.33;0.33;;;;;;;14.98;nan;100681.69;4974130;28;20213;-89
2023/06/27 00:56:22;;;;;;;0.10;0.10;;;;;;;14.98;nan;100685.25;4974032;28;20202;-90
2023/06/27 00:58:48;;;;;;;5.20;0.50;;;;;;;14.95;nan;100690.63;4974635;28;20189;-89
2023/06/27 01:01:13;;;;;;;3.60;0.43;;;;;;;14.94;nan;100687.06;4973841;28;20197;-89
2023/06/27 01:03:39;;;;;;;0.57;0.57;;;;;;;14.91;nan;100689.69;4975148;28;20205;-89
2023/06/27 01:06:30;;;;;;;0.50;0.50;;;;;;;14.87;nan;100682.09;4973762;28;20190;-90
2023/06/27 01:09:07;;;;;;;0.30;0.20;;;;;;;14.71;nan;100678.31;4974685;28;20213;-89
2023/06/27 01:11:41;;;;;;;0.20;0.20;;;;;;;14.70;nan;100682.19;4973736;28;20193;-89
2023/06/27 01:14:09;;;;;;;6.30;2.30;;;;;;;14.67;nan;100682.88;4974747;28;20221;-89
2023/06/27 01:16:35;;;;;;;7.37;0.87;;;;;;;14.63;nan;100684.69;4974724;28;20189;-88
2023/06/27 01:19:01;;;;;;;1.03;0.97;;;;;;;14.63;nan;100678.38;4973135;28;20200;-90
2023/06/27 01:21:28;;;;;;;2.10;0.27;;;;;;;14.62;nan;100677.56;4973209;28;20189;-89
2023/06/27 01:23:55;;;;;;;0.50;0.50;;;;;;;14.62;nan;100682.28;4974210;28;20285;-90
2023/06/27 01:26:22;;;;;;;0.90;0.90;;;;;;;14.70;nan;100681.41;4973122;28;20221;-89
2023/06/27 01:28:48;;;;;;;0.50;0.30;;;;;;;14.67;nan;100680.13;4972925;28;20212;-89
2023/06/27 01:31:23;;;;;;;2.13;0.17;;;;;;;14.62;nan;100679.53;4973164;28;20571;-89
2023/06/27 01:34:02;;;;;;;0.53;0.40;;;;;;;14.59;nan;100684.53;4972919;28;20626;-90
2023/06/27 01:36:44;;;;;;;0.50;0.40;;;;;;;14.56;nan;100679.69;4966605;28;20243;-90
2023/06/27 01:39:17;;;;;;;0.80;0.77;;;;;;;14.56;nan;100678.88;4972823;28;20194;-89
2023/06/27 01:41:47;;;;;;;0.80;0.80;;;;;;;14.50;nan;100686.53;4974062;28;20173;-88
2023/06/27 01:44:15;;;;;;;3.30;2.43;;;;;;;14.56;nan;100676.13;4972901;28;20204;-90
2023/06/27 01:46:42;;;;;;;0.50;0.50;;;;;;;14.52;nan;100676.00;4972732;28;20188;-90
2023/06/27 01:49:09;;;;;;;0.03;0.03;;;;;;;14.46;nan;100676.50;4972056;28;20212;-89
2023/06/27 01:51:34;;;;;;;0.13;0.13;;;;;;;14.49;nan;100671.19;4972651;28;20277;-89
2023/06/27 01:53:59;;;;;;;1.13;0.63;;;;;;;14.44;nan;100667.78;4972564;28;20293;-89
2023/06/27 01:56:25;;;;;;;0.33;0.33;;;;;;;14.47;nan;100669.91;4972704;28;20185;-89
2023/06/27 01:58:50;;;;;;;0.63;0.63;;;;;;;14.44;nan;100659.53;4973703;28;20186;-90
2023/06/27 02:01:16;;;;;;;5.30;0.50;;;;;;;14.47;nan;100661.66;4972253;28;20664;-90
2023/06/27 02:03:41;;;;;;;0.17;0.17;;;;;;;14.46;nan;100655.31;4988744;28;20213;-88
2023/06/27 02:06:07;;;;;;;0.20;0.20;;;;;;;14.48;nan;100661.31;4988734;28;20186;-91
2023/06/27 02:08:32;;;;;;;5.70;0.40;;;;;;;14.46;nan;100666.31;4988430;28;20678;-85
2023/06/27 02:10:58;;;;;;;3.20;0.73;;;;;;;14.33;nan;100666.56;4972506;28;20540;-90
2023/06/27 02:13:23;;;;;;;0.40;0.40;;;;;;;14.36;nan;100666.69;4972143;28;20584;-89
2023/06/27 02:15:49;;;;;;;0.33;0.33;;;;;;;14.38;nan;100667.16;4969099;28;20282;-90
2023/06/27 02:18:14;;;;;;;0.13;0.13;;;;;;;14.32;nan;100663.00;4988245;28;20197;-89
2023/06/27 02:20:39;;;;;;;0.17;0.17;;;;;;;14.30;nan;100668.00;4972425;28;20685;-90
2023/06/27 02:23:05;;;;;;;0.43;0.43;;;;;;;14.30;nan;100666.06;4973254;28;20205;-89
2023/06/27 02:25:30;;;;;;;0.30;0.30;;;;;;;14.26;nan;100659.63;4972561;28;20252;-89
2023/06/27 02:27:55;;;;;;;0.10;0.10;;;;;;;14.27;nan;100663.97;4973528;28;20252;-90
2023/06/27 02:30:20;;;;;;;3.50;0.57;;;;;;;14.24;nan;100661.88;4987834;28;20623;-88
2023/06/27 02:32:46;;;;;;;0.20;0.20;;;;;;;14.24;nan;100661.88;4969051;28;20198;-90
2023/06/27 02:35:15;;;;;;;6.50;0.43;;;;;;;14.22;nan;100657.88;4971355;28;20186;-88
2023/06/27 02:37:41;;;;;;;3.00;0.30;;;;;;;14.26;nan;100659.63;4972122;28;20225;-89
2023/06/27 02:40:07;;;;;;;0.30;0.20;;;;;;;14.27;nan;100660.41;4971620;28;20185;-90
2023/06/27 02:42:32;;;;;;;4.83;0.93;;;;;;;14.19;nan;100659.34;4968526;28;20213;-91
2023/06/27 02:44:57;;;;;;;9.53;0.80;;;;;;;14.18;nan;100665.97;4969248;28;20185;-89
2023/06/27 02:47:23;;;;;;;0.60;0.60;;;;;;;14.18;nan;100660.47;4971927;28;20668;-89
2023/06/27 02:49:48;;;;;;;0.57;0.27;;;;;;;14.18;nan;100665.16;4987943;28;20186;-89
2023/06/27 02:52:13;;;;;;;0.97;0.60;;;;;;;14.15;nan;100672.09;4988075;28;20583;-89
2023/06/27 02:54:39;;;;;;;6.63;0.70;;;;;;;14.03;nan;100671.97;4973104;28;20195;-90
2023/06/27 02:57:04;;;;;;;4.87;0.27;;;;;;;14.05;nan;100669.75;4972951;28;20184;-89
2023/06/27 02:59:30;;;;;;;0.30;0.30;;;;;;;14.09;nan;100675.38;4971550;28;20656;-88
2023/06/27 03:01:55;;;;;;;0.40;0.40;;;;;;;14.07;nan;100672.16;4975293;28;20229;-89
2023/06/27 03:04:21;;;;;;;0.67;0.63;;;;;;;14.12;nan;100675.50;4992199;28;20200;-90
2023/06/27 03:06:46;;;;;;;0.83;0.83;;;;;;;14.08;nan;100674.56;4980833;28;20273;-89
2023/06/27 03:09:12;;;;;;;0.27;0.27;;;;;;;14.02;nan;100670.38;4978504;28;20217;-90
2023/06/27 03:11:37;;;;;;;3.30;0.70;;;;;;;13.98;nan;100664.75;4976373;28;20185;-90
2023/06/27 03:14:02;;;;;;;0.67;0.67;;;;;;;13.96;nan;100671.69;4977145;28;20216;-89
2023/06/27 03:16:28;;;;;;;0.37;0.37;;;;;;;14.01;nan;100674.25;4977790;28;20182;-90
2023/06/27 03:18:56;;;;;;;1.33;0.67;;;;;;;14.08;nan;100669.06;4976712;28;20645;-89
2023/06/27 03:21:21;;;;;;;0.50;0.20;;;;;;;14.06;nan;100668.59;4976751;28;20218;-90
2023/06/27 03:23:47;;;;;;;0.10;0.10;;;;;;;14.10;nan;100672.28;4976783;28;20233;-88
2023/06/27 03:26:12;;;;;;;0.10;0.10;;;;;;;14.12;nan;100664.53;4975543;28;20205;-89
2023/06/27 03:28:39;;;;;;;0.30;0.30;;;;;;;14.18;nan;100663.22;4975133;28;20620;-89
2023/06/27 03:31:05;;;;;;;1.70;0.93;;;;;;;14.13;nan;100668.06;4975483;28;20194;-89
2023/06/27 03:33:30;;;;;;;0.60;0.60;;;;;;;14.07;nan;100667.47;4975197;28;20206;-90
2023/06/27 03:35:56;;;;;;;4.30;2.37;;;;;;;14.09;nan;100672.63;4976367;28;20193;-89
2023/06/27 03:38:21;;;;;;;0.47;0.43;;;;;;;14.10;nan;100661.31;4975192;28;20197;-90
2023/06/27 03:40:46;;;;;;;0.30;0.30;;;;;;;14.11;nan;100671.16;4976191;28;20177;-90
2023/06/27 03:43:13;;;;;;;0.20;0.20;;;;;;;14.13;nan;100677.13;4974976;28;20799;-89
2023/06/27 03:45:40;;;;;;;0.60;0.60;;;;;;;14.17;nan;100669.81;4975008;28;20196;-89
2023/06/27 03:48:05;;;;;;;0.50;0.50;;;;;;;14.16;nan;100672.91;4974797;28;20268;-89
2023/06/27 03:50:32;;;;;;;0.73;0.73;;;;;;;14.16;nan;100670.97;4974623;28;20682;-89
2023/06/27 03:52:57;;;;;;;1.67;0.57;;;;;;;14.19;nan;100670.31;4974726;28;20210;-89
2023/06/27 03:55:23;;;;;;;0.73;0.73;;;;;;;14.17;nan;100667.06;4991039;28;20178;-89
2023/06/27 03:57:49;;;;;;;2.60;0.53;;;;;;;14.23;nan;100668.53;4975989;28;20206;-89
2023/06/27 04:00:14;;;;;;;1.47;1.37;;;;;;;14.29;nan;100674.63;4974727;28;20186;-88
2023/06/27 04:02:39;;;;;;;0.00;0.00;;;;;;;14.32;nan;100676.75;4975678;28;20234;-89
2023/06/27 04:05:05;;;;;;;0.00;0.00;;;;;;;14.38;nan;100675.41;4974616;28;20206;-89
2023/06/27 04:07:31;;;;;;;0.47;0.47;;;;;;;14.40;nan;100675.06;4974801;28;20691;-89
2023/06/27 04:10:04;;;;;;;0.00;0.00;;;;;;;14.44;nan;100681.53;4974384;28;20182;-89
2023/06/27 04:12:32;;;;;;;1.27;1.27;;;;;;;14.48;nan;100677.00;4990500;23;20278;-88
2023/06/27 04:14:57;;;;;;;0.77;0.47;;;;;;;14.45;nan;100686.69;4952257;29;20197;-88
2023/06/27 04:17:23;;;;;;;1.70;0.67;;;;;;;14.45;nan;100680.41;4954962;29;20640;-88
2023/06/27 04:19:51;;;;;;;0.30;0.30;;;;;;;14.49;nan;100687.69;4955799;28;20182;-88
2023/06/27 04:22:16;;;;;;;0.50;0.50;;;;;;;14.47;nan;100675.41;4955872;28;20673;-88
2023/06/27 04:24:42;;;;;;;3.83;0.93;;;;;;;14.49;nan;100681.38;4954866;29;20209;-87
2023/06/27 04:27:10;;;;;;;0.50;0.50;;;;;;;14.48;nan;100677.81;4954542;29;20400;-88
2023/06/27 04:29:36;;;;;;;0.53;0.50;;;;;;;14.57;nan;100677.75;4955635;28;20189;-88
2023/06/27 04:32:02;;;;;;;0.20;0.20;;;;;;;14.63;nan;100681.13;4940321;28;20231;-88
2023/06/27 04:34:27;;;;;;;0.37;0.37;;;;;;;14.64;nan;100678.03;4955803;28;20229;-87
2023/06/27 04:36:55;;;;;;;0.70;0.67;;;;;;;14.54;nan;100679.22;4955807;29;20253;-87
2023/06/27 04:39:21;;;;;;;2.17;0.93;;;;;;;14.52;nan;100676.00;4955469;29;20234;-88
2023/06/27 04:41:46;;;;;;;1.20;1.13;;;;;;;14.64;nan;100691.78;4955597;29;20187;-88
2023/06/27 04:44:11;;;;;;;0.37;0.37;;;;;;;14.57;nan;100684.06;4955543;28;20897;-88
2023/06/27 04:46:37;;;;;;;1.20;1.20;;;;;;;14.59;nan;100681.78;4956645;28;20210;-88
2023/06/27 04:49:02;;;;;;;0.30;0.30;;;;;;;14.71;nan;100692.06;4953232;29;20687;-87
2023/06/27 04:51:29;;;;;;;6.70;1.20;;;;;;;14.69;nan;100688.84;4970490;28;20196;-87
2023/06/27 04:53:55;;;;;;;2.03;1.30;;;;;;;14.72;nan;100690.13;4955415;28;20197;-87
2023/06/27 04:56:24;;;;;;;0.30;0.30;;;;;;;14.86;nan;100693.44;4955429;28;20733;-88
2023/06/27 04:58:50;;;;;;;1.40;0.97;;;;;;;14.84;nan;100696.50;4969966;28;20236;-87
2023/06/27 05:01:16;;;;;;;0.10;0.10;;;;;;;14.79;nan;100690.41;4970175;28;20194;-88
2023/06/27 05:03:41;;;;;;;0.50;0.50;;;;;;;14.83;nan;100702.34;4970181;28;20215;-88
2023/06/27 05:06:07;;;;;;;0.40;0.40;;;;;;;14.85;nan;100692.63;4955153;29;20189;-88
2023/06/27 05:08:35;;;;;;;1.30;0.97;;;;;;;14.90;nan;100688.88;4955170;28;20681;-89
2023/06/27 05:11:00;;;;;;;5.50;0.83;;;;;;;15.02;nan;100688.94;4939247;28;20186;-88
2023/06/27 05:13:28;;;;;;;0.60;0.60;;;;;;;15.03;nan;100690.53;4954989;28;20210;-88
2023/06/27 05:15:53;;;;;;;3.03;1.43;;;;;;;15.07;nan;100697.00;4955079;28;20182;-87
2023/06/27 05:18:19;;;;;;;1.50;1.23;;;;;;;15.14;nan;100689.00;4954966;29;20187;-88
2023/06/27 05:20:45;;;;;;;0.60;0.60;;;;;;;15.14;nan;100682.69;4954696;29;20548;-87
2023/06/27 05:23:11;;;;;;;1.13;1.03;;;;;;;15.28;nan;100691.50;4954213;28;20305;-88
2023/06/27 05:25:37;;;;;;;0.47;0.47;;;;;;;15.35;nan;100697.28;4955440;28;20217;-88
2023/06/27 05:28:03;;;;;;;0.87;0.87;;;;;;;15.34;nan;100690.16;4957645;28;20245;-88
2023/06/27 05:30:29;;;;;;;0.73;0.70;;;;;;;15.39;nan;100694.63;4969423;28;20182;-88
2023/06/27 05:32:55;;;;;;;1.43;0.93;;;;;;;15.39;nan;100698.19;4954688;28;20677;-88
2023/06/27 05:35:21;;;;;;;2.87;1.87;;;;;;;15.47;nan;100696.50;4954949;28;20182;-88
2023/06/27 05:37:47;;;;;;;1.20;1.10;;;;;;;15.59;nan;100701.25;4954673;28;20179;-87
2023/06/27 05:40:12;;;;;;;2.10;0.97;;;;;;;15.54;nan;100690.47;4951853;28;20210;-87
2023/06/27 05:42:38;;;;;;;1.03;1.03;;;;;;;15.68;nan;100693.75;4941424;28;20229;-87
2023/06/27 05:45:05;;;;;;;0.30;0.30;;;;;;;15.78;nan;100687.81;4954830;28;20210;-88
2023/06/27 05:47:30;;;;;;;1.53;0.80;;;;;;;15.85;nan;100678.97;4953521;28;20179;-88
2023/06/27 05:49:55;;;;;;;0.70;0.60;;;;;;;15.97;nan;100685.31;4954441;29;20182;-88
2023/06/27 05:52:20;;;;;;;2.27;0.63;;;;;;;16.00;nan;100683.84;4954436;28;20239;-87
2023/06/27 05:54:46;;;;;;;2.20;1.30;;;;;;;16.13;nan;100685.47;4954393;29;20593;-88
2023/06/27 05:57:11;;;;;;;0.97;0.90;;;;;;;16.16;nan;100681.22;4954408;29;20189;-88
2023/06/27 05:59:37;;;;;;;1.57;1.47;;;;;;;16.35;nan;100682.28;4954159;28;20222;-88
2023/06/27 06:02:03;;;;;;;0.73;0.70;;;;;;;16.25;nan;100679.16;4938779;28;20347;-88
2023/06/27 06:04:29;;;;;;;0.50;0.50;;;;;;;16.23;nan;100681.47;4954194;28;20214;-88
2023/06/27 06:06:55;;;;;;;1.30;1.27;;;;;;;16.34;nan;100679.84;4954079;28;20183;-88
2023/06/27 06:09:20;;;;;;;10.30;1.90;;;;;;;16.30;nan;100676.16;4954204;29;20178;-88
2023/06/27 06:11:45;;;;;;;0.97;0.80;;;;;;;16.28;nan;100676.53;4953072;29;20269;-87
2023/06/27 06:14:11;;;;;;;0.80;0.60;;;;;;;16.33;nan;100675.47;4954422;28;20222;-88
2023/06/27 06:16:36;;;;;;;1.97;1.00;;;;;;;16.35;nan;100675.97;4954521;29;20246;-87
2023/06/27 06:19:03;;;;;;;9.20;1.17;;;;;;;16.49;nan;100686.63;4954036;28;20653;-88
2023/06/27 06:21:29;;;;;;;3.03;1.13;;;;;;;16.57;nan;100675.47;4954037;28;20193;-88
2023/06/27 06:23:54;;;;;;;1.90;0.87;;;;;;;16.55;nan;100674.22;4952697;28;20210;-88
2023/06/27 06:26:19;;;;;;;0.50;0.50;;;;;;;16.69;nan;100684.94;4954155;28;20228;-87
2023/06/27 06:28:46;;;;;;;0.40;0.40;;;;;;;16.81;nan;100684.91;4952716;29;20206;-88
2023/06/27 06:31:14;;;;;;;0.80;0.73;;;;;;;16.88;nan;100696.16;4954156;28;20665;-88
2023/06/27 06:33:40;;;;;;;0.87;0.50;;;;;;;17.01;nan;100695.00;4969034;28;20253;-88
2023/06/27 06:36:06;;;;;;;4.77;1.03;;;;;;;17.08;nan;100688.91;4953758;28;20183;-88
2023/06/27 06:38:32;;;;;;;0.50;0.50;;;;;;;17.15;nan;100692.66;4968662;28;20677;-88
2023/06/27 06:40:57;;;;;;;7.63;0.50;;;;;;;17.20;nan;100689.63;4953976;28;20186;-88
2023/06/27 06:43:26;;;;;;;5.83;0.83;;;;;;;17.29;nan;100683.19;4954435;28;20216;-88
2023/06/27 06:45:54;;;;;;;1.53;1.10;;;;;;;17.49;nan;100696.78;4946964;29;20562;-88
2023/06/27 06:48:20;;;;;;;0.33;0.33;;;;;;;17.44;nan;100680.47;4953229;28;20190;-87
2023/06/27 06:50:46;;;;;;;0.30;0.30;;;;;;;17.50;nan;100681.00;4952435;29;20564;-88
2023/06/27 06:53:11;;;;;;;1.60;0.80;;;;;;;17.58;nan;100687.56;4952574;28;20206;-87
2023/06/27 06:55:36;;;;;;;1.50;1.13;;;;;;;17.56;nan;100674.09;4954250;28;20183;-88
2023/06/27 06:58:02;;;;;;;0.93;0.77;;;;;;;17.54;nan;100676.41;4953585;29;20186;-87
2023/06/27 07:00:27;;;;;;;0.83;0.83;;;;;;;17.62;nan;100672.66;4952654;29;20186;-88
2023/06/27 07:02:53;;;;;;;5.50;1.27;;;;;;;17.53;nan;100670.09;4953470;28;20217;-85
2023/06/27 07:05:19;;;;;;;0.83;0.57;;;;;;;17.49;nan;100666.41;4953689;28;20182;-87
2023/06/27 07:07:44;;;;;;;1.97;0.80;;;;;;;17.60;nan;100663.94;4953583;28;20185;-86
2023/06/27 07:10:09;;;;;;;1.03;0.67;;;;;;;17.65;nan;100666.47;4953456;28;20178;-87
2023/06/27 07:12:35;;;;;;;2.00;0.97;;;;;;;17.74;nan;100669.06;4953607;28;20210;-87
2023/06/27 07:15:00;;;;;;;0.63;0.57;;;;;;;17.79;nan;100661.34;4953660;29;20182;-86
2023/06/27 07:17:26;;;;;;;1.27;0.43;;;;;;;17.98;nan;100668.94;4968481;28;20210;-86
2023/06/27 07:19:52;;;;;;;0.10;0.10;;;;;;;18.21;nan;100662.75;4952088;29;20206;-87
2023/06/27 07:22:17;;;;;;;1.07;1.00;;;;;;;18.16;nan;100650.00;4953392;28;20308;-86
2023/06/27 07:24:43;;;;;;;0.40;0.40;;;;;;;18.18;nan;100646.88;4954006;29;20179;-86
2023/06/27 07:27:08;;;;;;;0.40;0.40;;;;;;;18.05;nan;100640.66;4953521;28;20273;-86
2023/06/27 07:29:33;;;;;;;0.60;0.47;;;;;;;18.27;nan;100647.53;4952055;29;20194;-86
2023/06/27 07:31:59;;;;;;;0.40;0.40;;;;;;;18.33;nan;100657.13;4952094;29;20186;-85
2023/06/27 07:34:26;;;;;;;0.80;0.80;;;;;;;18.32;nan;100645.28;4945557;28;20253;-86
2023/06/27 07:36:51;;;;;;;0.60;0.60;;;;;;;18.40;nan;100641.53;4953444;29;20684;-87
2023/06/27 07:39:16;;;;;;;1.17;0.83;;;;;;;18.54;nan;100643.81;4953147;29;20197;-88
2023/06/27 07:41:42;;;;;;;1.50;1.00;;;;;;;18.65;nan;100641.31;4953650;29;20193;-87
2023/06/27 07:44:07;;;;;;;3.83;0.97;;;;;;;18.73;nan;100632.00;4953291;28;20202;-86
2023/06/27 07:46:32;;;;;;;1.40;0.97;;;;;;;18.72;nan;100636.75;4954672;28;20661;-87
2023/06/27 07:48:59;;;;;;;0.70;0.70;;;;;;;18.88;nan;100638.66;4956554;29;20716;-86
2023/06/27 07:51:26;;;;;;;0.63;0.40;;;;;;;19.01;nan;100637.38;4955295;29;20229;-87
2023/06/27 07:53:51;;;;;;;0.50;0.50;;;;;;;19.00;nan;100636.56;4955697;28;20277;-87
2023/06/27 07:56:17;;;;;;;0.50;0.50;;;;;;;18.71;nan;100628.81;4952405;29;20638;-87
2023/06/27 07:58:44;;;;;;;0.87;0.87;;;;;;;18.72;nan;100633.97;4944409;29;20708;-86
2023/06/27 08:01:10;;;;;;;0.23;0.23;;;;;;;19.02;nan;100637.00;4956635;28;20183;-86
2023/06/27 08:03:35;;;;;;;0.00;0.00;;;;;;;19.29;nan;100618.56;4956596;28;20265;-87
2023/06/27 08:06:03;;;;;;;0.63;0.63;;;;;;;19.44;nan;100613.28;4971342;28;20194;-87
2023/06/27 08:08:28;;;;;;;1.27;1.27;;;;;;;19.31;nan;100607.09;4955404;28;20221;-86
2023/06/27 08:10:56;;;;;;;0.20;0.20;;;;;;;19.22;nan;100598.22;4956500;29;20221;-86
2023/06/27 08:13:21;;;;;;;1.33;1.23;;;;;;;19.16;nan;100610.75;4954944;28;20301;-88
2023/06/27 08:15:46;;;;;;;0.40;0.40;;;;;;;18.96;nan;100605.22;4972590;28;20175;-86
2023/06/27 08:18:12;;;;;;;0.50;0.20;;;;;;;19.03;nan;100601.78;4981054;28;20183;-85
2023/06/27 08:20:37;;;;;;;8.13;0.27;;;;;;;18.99;nan;100601.72;4980388;28;20187;-86
2023/06/27 08:23:02;;;;;;;0.27;0.20;;;;;;;19.18;nan;100613.97;4980716;28;20237;-87
2023/06/27 08:25:28;;;;;;;0.03;0.03;;;;;;;19.18;nan;100606.47;4980297;28;20191;-86
2023/06/27 08:27:53;;;;;;;5.40;0.77;;;;;;;19.24;nan;100596.69;4980444;28;20222;-85
2023/06/27 08:30:19;;;;;;;0.23;0.23;;;;;;;19.18;nan;100605.66;4978819;28;20212;-87
2023/06/27 08:32:44;;;;;;;0.10;0.10;;;;;;;19.26;nan;100593.56;4971321;28;20698;-88
2023/06/27 08:35:11;;;;;;;4.63;0.47;;;;;;;19.48;nan;100584.47;4954865;28;20284;-87
2023/06/27 08:37:36;;;;;;;1.83;1.50;;;;;;;19.61;nan;100594.25;4954876;29;20182;-87
2023/06/27 08:40:02;;;;;;;0.70;0.70;;;;;;;19.53;nan;100586.94;4954490;29;20218;-87
2023/06/27 08:42:31;;;;;;;0.50;0.50;;;;;;;19.41;nan;100595.44;4935508;29;20253;-87
2023/06/27 08:44:57;;;;;;;0.87;0.50;;;;;;;19.49;nan;100597.16;4967947;28;20611;-87
2023/06/27 08:47:26;;;;;;;0.03;0.03;;;;;;;19.86;nan;100582.78;4955997;28;20237;-86
2023/06/27 08:50:01;;;;;;;1.97;1.80;;;;;;;19.93;nan;100569.03;4954391;29;20201;-88
2023/06/27 08:52:27;;;;;;;0.00;0.00;;;;;;;19.78;nan;100570.75;4954551;28;20206;-88
2023/06/27 08:54:56;;;;;;;4.37;0.80;;;;;;;19.63;nan;100568.13;4970409;28;20277;-87
2023/06/27 08:57:26;;;;;;;1.53;1.27;;;;;;;19.53;nan;100577.84;4953806;28;20183;-87
2023/06/27 08:59:54;;;;;;;1.77;1.67;;;;;;;19.35;nan;100588.56;4955211;28;20192;-87
2023/06/27 09:02:21;;;;;;;6.27;0.57;;;;;;;19.59;nan;100601.31;4955433;28;20210;-87
2023/06/27 09:04:47;;;;;;;1.03;0.60;;;;;;;19.71;nan;100594.81;4948073;28;20237;-87
2023/06/27 09:07:12;;;;;;;0.97;0.47;;;;;;;19.84;nan;100574.03;4970256;28;20186;-88
2023/06/27 09:09:38;;;;;;;0.90;0.90;;;;;;;20.23;nan;100568.28;4953926;28;20197;-86
2023/06/27 09:12:04;;;;;;;0.40;0.40;;;;;;;20.61;nan;100570.88;4954107;29;20218;-87
2023/06/27 09:14:30;;;;;;;0.50;0.50;;;;;;;20.60;nan;100574.81;4953752;28;20226;-86
2023/06/27 09:16:56;;;;;;;0.80;0.80;;;;;;;20.63;nan;100562.94;4955370;28;20186;-87
2023/06/27 09:19:21;;;;;;;1.83;0.40;;;;;;;20.43;nan;100562.31;4954022;29;20178;-87
2023/06/27 09:21:48;;;;;;;0.23;0.23;;;;;;;20.44;nan;100568.66;4955180;28;20258;-87
2023/06/27 09:24:16;;;;;;;13.30;1.00;;;;;;;20.54;nan;100558.84;4954968;28;20529;-87
2023/06/27 09:26:42;;;;;;;0.63;0.63;;;;;;;20.54;nan;100551.31;4953966;28;20182;-86
2023/06/27 09:29:08;;;;;;;0.63;0.50;;;;;;;20.64;nan;100544.31;4954490;28;20204;-86
2023/06/27 09:31:34;;;;;;;1.00;0.33;;;;;;;20.82;nan;100541.75;4953800;29;20335;-87
2023/06/27 09:34:12;;;;;;;0.83;0.83;;;;;;;20.76;nan;100550.44;4955481;28;20198;-87
2023/06/27 09:36:44;;;;;;;0.10;0.10;;;;;;;20.59;nan;100551.00;4955658;29;20691;-88
2023/06/27 09:39:12;;;;;;;0.80;0.63;;;;;;;20.46;nan;100550.44;4954502;28;20214;-87
2023/06/27 09:41:46;;;;;;;0.00;0.00;;;;;;;20.51;nan;100552.06;4948563;28;20270;-88
2023/06/27 09:44:17;;;;;;;0.07;0.07;;;;;;;20.75;nan;100557.16;4944658;29;20216;-88
2023/06/27 09:46:43;;;;;;;0.23;0.20;;;;;;;20.98;nan;100559.84;4954760;28;20183;-87
2023/06/27 09:49:09;;;;;;;0.00;0.00;;;;;;;20.99;nan;100541.19;4954368;28;20193;-88
2023/06/27 09:51:35;;;;;;;0.10;0.03;;;;;;;20.89;nan;100553.75;4953327;28;20187;-88
2023/06/27 09:54:04;;;;;;;0.70;0.40;;;;;;;20.71;nan;100545.22;4953229;28;20233;-87
2023/06/27 09:56:34;;;;;;;0.47;0.20;;;;;;;20.73;nan;100553.97;4954662;28;20210;-87
2023/06/27 09:59:10;;;;;;;0.00;0.00;;;;;;;21.14;nan;100562.41;4953920;28;20233;-87
2023/06/27 10:01:37;;;;;;;0.37;0.37;;;;;;;21.23;nan;100545.41;4948904;28;20226;-87
2023/06/27 10:04:03;;;;;;;0.20;0.20;;;;;;;21.13;nan;100540.56;4950806;28;20214;-88
2023/06/27 10:06:29;;;;;;;0.47;0.47;;;;;;;21.22;nan;100543.81;4953068;28;20193;-87
2023/06/27 10:08:55;;;;;;;3.30;0.30;;;;;;;21.26;nan;100548.25;4944493;28;20186;-87
2023/06/27 10:11:22;;;;;;;0.27;0.27;;;;;;;20.96;nan;100556.59;4954397;28;20190;-88
2023/06/27 10:13:48;;;;;;;0.13;0.13;;;;;;;20.85;nan;100560.47;4979439;23;20731;-85
2023/06/27 10:16:13;;;;;;;0.00;0.00;;;;;;;20.73;nan;100562.31;4946394;28;20194;-87
2023/06/27 10:18:38;;;;;;;3.00;0.47;;;;;;;20.77;nan;100559.56;4953257;28;20273;-86
2023/06/27 10:21:04;;;;;;;0.87;0.40;;;;;;;20.35;nan;100543.09;4953418;28;20645;-86
2023/06/27 10:23:30;;;;;;;0.30;0.30;;;;;;;20.10;nan;100537.19;4960802;28;20221;-86
2023/06/27 10:25:58;;;;;;;0.50;0.37;;;;;;;20.01;nan;100548.56;4961553;28;20573;-88
2023/06/27 10:28:23;;;;;;;0.93;0.73;;;;;;;20.48;nan;100547.28;4972595;28;20194;-86
2023/06/27 10:30:49;;;;;;;0.23;0.23;;;;;;;20.92;nan;100549.44;4988427;28;20212;-87
2023/06/27 10:33:28;;;;;;;0.40;0.40;;;;;;;21.20;nan;100538.63;4964402;28;20710;-86
2023/06/27 10:35:59;;;;;;;0.00;0.00;;;;;;;21.34;nan;100535.22;4972190;28;20193;-86
2023/06/27 10:38:35;;;;;;;1.67;1.07;;;;;;;21.39;nan;100521.78;4973357;28;20187;-85
2023/06/27 10:41:06;;;;;;;5.77;0.87;;;;;;;21.43;nan;100521.81;4972059;28;20594;-86
2023/06/27 10:43:51;;;;;;;0.60;0.60;;;;;;;21.57;nan;100510.84;4972213;28;20217;-86
2023/06/27 10:46:21;;;;;;;0.00;0.00;;;;;;;21.87;nan;100521.78;4963964;28;20269;-86
2023/06/27 10:48:50;;;;;;;0.00;0.00;;;;;;;22.25;nan;100519.66;4972102;28;20245;-86
2023/06/27 10:51:21;;;;;;;0.40;0.30;;;;;;;22.11;nan;100497.31;4972273;28;20189;-86
2023/06/27 10:54:08;;;;;;;0.10;0.10;;;;;;;21.90;nan;100478.50;4965236;28;20207;-86
2023/06/27 10:56:36;;;;;;;0.70;0.60;;;;;;;21.73;nan;100477.19;4976899;28;20197;-87
2023/06/27 10:59:03;;;;;;;0.37;0.37;;;;;;;21.65;nan;100498.56;4973038;28;20209;-87
2023/06/27 11:01:30;;;;;;;0.50;0.50;;;;;;;21.76;nan;100492.28;4972460;28;20679;-86
2023/06/27 11:03:58;;;;;;;10.70;0.70;;;;;;;21.84;nan;100488.38;4965339;28;20654;-88
2023/06/27 11:06:40;;;;;;;0.30;0.30;;;;;;;21.74;nan;100489.09;4972611;28;20183;-86
2023/06/27 11:09:08;;;;;;;0.10;0.10;;;;;;;21.91;nan;100491.22;4965466;28;20363;-86
2023/06/27 11:11:34;;;;;;;0.43;0.43;;;;;;;22.23;nan;100481.09;4971831;28;20304;-86
2023/06/27 11:14:07;;;;;;;0.13;0.13;;;;;;;22.37;nan;100480.38;4972154;28;20226;-86
2023/06/27 11:16:36;;;;;;;3.33;1.23;;;;;;;22.36;nan;100481.56;4966972;28;20195;-87
2023/06/27 11:19:02;;;;;;;0.47;0.47;;;;;;;22.32;nan;100479.97;4985974;28;20249;-84
2023/06/27 11:21:29;;;;;;;0.80;0.80;;;;;;;22.11;nan;100470.28;4989461;28;20184;-86
2023/06/27 11:23:58;;;;;;;0.20;0.20;;;;;;;21.82;nan;100477.63;4967785;28;20231;-86
2023/06/27 11:26:24;;;;;;;0.20;0.20;;;;;;;21.69;nan;100476.34;4975663;28;20178;-86
2023/06/27 11:28:50;;;;;;;2.03;1.23;;;;;;;21.57;nan;100480.25;4976674;28;20636;-86
2023/06/27 11:31:16;;;;;;;0.30;0.30;;;;;;;21.24;nan;100494.19;4975573;28;20273;-86
2023/06/27 11:33:41;;;;;;;0.20;0.20;;;;;;;21.08;nan;100494.44;4975539;28;20221;-87
2023/06/27 11:36:08;;;;;;;0.40;0.40;;;;;;;20.86;nan;100487.06;4975416;28;20256;-85
2023/06/27 11:38:34;;;;;;;0.20;0.20;;;;;;;20.87;nan;100506.13;4970116;28;20522;-86